SEAM

Chachoán Airport

Airport
ICAO code
SEAM
IATA Code
ATF
Summary
ICAO Region
CARSAM
ICAO Territory
Location

, Tungurahua

Serving
Ambato
Elevation
8502 ft
Coordinates
1° 12' 43" S , 78° 34' 29" W
Metar
Observation
SEAM 262100Z 11003KT 9999 FEW020 20/14 Q1024
Station
Ambato / Chachoan
Date/Time
2022-09-26 21:00:00
Wind direction
110°
Wind speed
03 kts
Lowest cloud amount
few clouds
Temperature
20°C
Dew point
14°C
Humidity
68%
QNH
1024 hPa
Weather condition
n/a

Runways

Designator Length Width Surface Rops
1/19 1925 25 ASP No/No

Airport map

Aerial View

SKYbrary Partners:

Safety knowledge contributed by: